Time;durP1;ratioP1;P1;durP2;ratioP2;P2;SDS_P1;SDS_P2;PMS_P1;PMS_P2;Temp;Humidity;BMP_temperature;BMP_pressure;BME280_temperature;BME280_humidity;BME280_pressure;Samples;Min_cycle;Max_cycle;Signal;HPM_P1;HPM_P2
2022/07/28 00:01:17;;;;;;;13.23;2.85;;;;;;;45.56;19.89;100706.13;5082610;28;20363;-62
2022/07/28 00:03:44;;;;;;;14.73;3.30;;;;;;;47.32;17.70;100702.38;5081195;28;20074;-62
2022/07/28 00:06:11;;;;;;;8.00;2.45;;;;;;;46.13;18.62;100705.28;5090022;28;20032;-62
2022/07/28 00:08:38;;;;;;;13.50;2.72;;;;;;;46.21;19.30;100700.63;5077201;28;20036;-62
2022/07/28 00:11:05;;;;;;;14.10;2.65;;;;;;;46.28;19.06;100700.13;5086653;28;20036;-62
2022/07/28 00:13:32;;;;;;;8.20;2.70;;;;;;;46.82;17.76;100688.63;5084572;28;20020;-62
2022/07/28 00:15:58;;;;;;;10.85;2.88;;;;;;;46.46;18.49;100689.53;5078894;28;20041;-62
2022/07/28 00:18:25;;;;;;;14.25;2.90;;;;;;;48.06;16.72;100678.78;5090226;28;20031;-62
2022/07/28 00:20:52;;;;;;;9.40;2.88;;;;;;;46.25;18.54;100686.00;5078803;28;20067;-62
2022/07/28 00:23:18;;;;;;;17.33;2.97;;;;;;;48.02;16.55;100678.25;5084607;28;20029;-62
2022/07/28 00:25:45;;;;;;;8.93;2.60;;;;;;;46.04;18.26;100683.28;5081082;28;20499;-62
2022/07/28 00:28:11;;;;;;;9.27;2.60;;;;;;;45.45;19.50;100677.31;5089661;28;20513;-62
2022/07/28 00:30:38;;;;;;;11.13;3.00;;;;;;;44.85;20.25;100670.41;5076818;28;20050;-62
2022/07/28 00:33:05;;;;;;;12.23;2.53;;;;;;;45.10;19.97;100669.69;5086357;28;20573;-62
2022/07/28 00:35:31;;;;;;;12.98;3.10;;;;;;;43.63;21.54;100670.22;5084078;28;20486;-62
2022/07/28 00:37:59;;;;;;;15.38;3.35;;;;;;;44.54;20.53;100669.03;5078450;28;20036;-62
2022/07/28 00:41:09;;;;;;;27.50;4.28;;;;;;;43.97;21.01;100672.34;5089441;28;20478;-62
2022/07/28 00:43:14;;;;;;;15.70;2.83;;;;;;;43.74;21.42;100659.00;5081002;28;20027;-62
2022/07/28 00:45:40;;;;;;;12.25;3.20;;;;;;;43.82;21.77;100670.84;5079944;28;20495;-62
2022/07/28 00:48:07;;;;;;;14.27;2.50;;;;;;;43.62;21.31;100662.94;5088292;28;20486;-61
2022/07/28 00:50:34;;;;;;;16.75;3.17;;;;;;;44.32;20.79;100662.97;5074105;28;20028;-62
2022/07/28 00:53:01;;;;;;;14.63;3.45;;;;;;;43.07;21.92;100666.38;5079992;28;20032;-63
2022/07/28 00:55:28;;;;;;;11.00;2.92;;;;;;;43.19;22.03;100659.59;5081929;28;20101;-63
2022/07/28 00:57:55;;;;;;;8.88;2.58;;;;;;;43.70;21.70;100669.88;5084663;28;20033;-62
2022/07/28 01:00:22;;;;;;;17.10;3.22;;;;;;;43.08;22.76;100665.09;5061888;28;20431;-63
2022/07/28 01:02:49;;;;;;;11.43;3.15;;;;;;;42.70;22.74;100660.97;5064246;28;20074;-63
2022/07/28 01:05:16;;;;;;;9.63;3.00;;;;;;;43.47;21.94;100657.25;5069179;28;20209;-61
2022/07/28 01:07:45;;;;;;;17.50;3.53;;;;;;;43.29;22.55;100658.25;5066152;28;20045;-63
2022/07/28 01:10:28;;;;;;;15.73;3.17;;;;;;;43.25;22.48;100651.88;5069308;28;20067;-61
2022/07/28 01:13:09;;;;;;;10.00;2.80;;;;;;;42.31;23.71;100662.22;5067746;28;20093;-61
2022/07/28 01:16:01;;;;;;;9.60;2.50;;;;;;;42.58;23.52;100650.63;5065867;28;20028;-62
2022/07/28 01:18:57;;;;;;;11.98;2.65;;;;;;;43.53;22.18;100655.25;5066783;28;20479;-60
2022/07/28 01:21:28;;;;;;;10.70;3.00;;;;;;;43.07;22.42;100663.53;5065006;28;20066;-62
2022/07/28 01:24:30;;;;;;;10.50;2.35;;;;;;;41.52;24.53;100665.25;5066674;28;20676;-63
2022/07/28 01:27:02;;;;;;;21.92;3.30;;;;;;;40.63;25.62;100664.38;5054257;28;20087;-61
2022/07/28 01:29:52;;;;;;;17.63;3.45;;;;;;;40.68;25.69;100669.44;5066978;28;20096;-60
2022/07/28 01:32:24;;;;;;;17.58;3.25;;;;;;;40.54;25.96;100661.50;5069145;28;20036;-62
2022/07/28 01:35:25;;;;;;;19.67;2.70;;;;;;;40.05;26.85;100672.97;5064745;28;20025;-61
2022/07/28 01:37:56;;;;;;;14.65;3.08;;;;;;;39.66;27.22;100678.13;5064677;28;20139;-63
2022/07/28 01:40:28;;;;;;;12.43;3.20;;;;;;;39.98;26.54;100670.38;5059459;28;20025;-62
2022/07/28 01:43:11;;;;;;;11.50;2.85;;;;;;;40.14;26.11;100675.81;5061711;28;20076;-61
2022/07/28 01:45:44;;;;;;;13.73;2.53;;;;;;;39.88;26.99;100687.41;5063359;28;20040;-63
2022/07/28 01:48:13;;;;;;;12.05;2.55;;;;;;;39.49;27.14;100682.44;5055382;28;20150;-61
2022/07/28 01:50:45;;;;;;;14.90;2.90;;;;;;;39.14;27.40;100684.59;5064076;28;20029;-60
2022/07/28 01:53:14;;;;;;;18.48;2.85;;;;;;;39.18;26.87;100676.75;5065857;28;20184;-63
2022/07/28 01:55:48;;;;;;;13.40;2.83;;;;;;;39.28;27.07;100679.16;5064720;28;20514;-62
2022/07/28 01:58:17;;;;;;;22.15;2.85;;;;;;;39.27;26.96;100683.25;5066871;28;20029;-62
2022/07/28 02:00:49;;;;;;;13.82;2.47;;;;;;;39.19;26.56;100670.59;5062734;28;20117;-66
2022/07/28 02:03:18;;;;;;;13.80;2.47;;;;;;;39.08;26.93;100687.25;5064171;28;20048;-59
2022/07/28 02:05:51;;;;;;;16.58;2.75;;;;;;;38.86;26.83;100694.94;5061505;28;20021;-60
2022/07/28 02:08:23;;;;;;;11.23;2.38;;;;;;;38.71;26.38;100694.66;5059759;28;20098;-60
2022/07/28 02:13:43;;;;;;;9.57;2.22;;;;;;;38.50;26.64;100693.31;5061015;28;20059;-61
2022/07/28 02:16:13;;;;;;;12.95;2.35;;;;;;;38.22;27.17;100705.63;5062476;28;20513;-60
2022/07/28 02:18:43;;;;;;;16.55;2.65;;;;;;;38.24;26.82;100708.81;5059516;28;20388;-61
2022/07/28 02:21:14;;;;;;;7.57;1.98;;;;;;;37.99;27.33;100713.22;5066761;28;20505;-61
2022/07/28 02:23:44;;;;;;;24.25;2.40;;;;;;;37.90;27.17;100712.34;5062737;28;20537;-61
2022/07/28 02:26:14;;;;;;;11.88;2.30;;;;;;;37.73;27.31;100703.91;5063610;28;20021;-63
2022/07/28 02:28:43;;;;;;;10.18;2.15;;;;;;;37.66;27.34;100709.75;5060684;28;20033;-62
2022/07/28 02:31:18;;;;;;;11.18;2.08;;;;;;;37.43;27.85;100716.53;5063034;28;20048;-61
2022/07/28 02:33:47;;;;;;;17.90;2.28;;;;;;;37.29;28.01;100713.31;5059860;28;20583;-61
2022/07/28 02:36:24;;;;;;;13.52;2.13;;;;;;;37.21;27.77;100724.03;5064818;28;20025;-62
2022/07/28 02:38:55;;;;;;;11.25;2.38;;;;;;;37.18;27.56;100714.41;5062488;28;20059;-62
2022/07/28 02:41:26;;;;;;;7.78;2.00;;;;;;;37.09;27.32;100716.28;5063188;28;20443;-62
2022/07/28 02:43:59;;;;;;;11.63;2.25;;;;;;;36.99;27.25;100715.34;5058434;28;20116;-62
2022/07/28 02:46:37;;;;;;;18.83;2.42;;;;;;;36.83;27.77;100702.03;5061413;28;20025;-63
2022/07/28 02:49:11;;;;;;;7.97;2.10;;;;;;;36.73;27.52;100711.56;5066932;28;20444;-63
2022/07/28 02:51:42;;;;;;;6.47;1.77;;;;;;;36.64;27.84;100708.56;5063853;28;20049;-61
2022/07/28 02:54:11;;;;;;;9.10;2.25;;;;;;;36.69;27.58;100724.22;5065435;28;20055;-61
2022/07/28 02:56:41;;;;;;;12.80;2.00;;;;;;;36.56;27.62;100718.47;5062505;28;20377;-62
2022/07/28 02:59:09;;;;;;;15.73;2.65;;;;;;;36.57;27.85;100722.91;5063040;28;20470;-62
2022/07/28 03:01:37;;;;;;;12.93;2.40;;;;;;;36.48;28.04;100731.25;5059877;28;20048;-62
2022/07/28 03:04:04;;;;;;;8.10;1.95;;;;;;;36.36;27.73;100714.97;5063799;28;20047;-62
2022/07/28 03:06:31;;;;;;;20.75;2.58;;;;;;;36.35;28.47;100719.81;5063165;28;20051;-63
2022/07/28 03:08:58;;;;;;;14.57;2.50;;;;;;;36.22;29.10;100716.88;5058802;28;20051;-63
2022/07/28 03:11:26;;;;;;;17.15;2.88;;;;;;;36.24;28.89;100737.03;5060694;28;20029;-63
2022/07/28 03:13:53;;;;;;;17.42;2.67;;;;;;;36.27;28.94;100727.69;5060447;28;20540;-62
2022/07/28 03:16:22;;;;;;;11.55;2.50;;;;;;;36.21;28.88;100737.91;5063119;28;20384;-63
2022/07/28 03:18:49;;;;;;;15.20;2.70;;;;;;;36.14;29.44;100743.75;5059128;28;20121;-62
2022/07/28 03:21:16;;;;;;;13.45;3.13;;;;;;;36.09;29.36;100735.78;5061039;28;20775;-63
2022/07/28 03:23:46;;;;;;;13.02;3.10;;;;;;;36.00;28.84;100739.22;5058578;28;20047;-60
2022/07/28 03:26:26;;;;;;;16.42;3.45;;;;;;;35.97;29.85;100744.97;5060897;28;20029;-61
2022/07/28 03:28:55;;;;;;;9.70;2.63;;;;;;;35.93;29.89;100738.59;5062133;28;20043;-62
2022/07/28 03:31:24;;;;;;;12.48;2.47;;;;;;;35.93;29.60;100755.56;5064586;28;20021;-63
2022/07/28 03:33:51;;;;;;;10.75;2.47;;;;;;;35.80;30.15;100763.09;5059501;28;20084;-62
2022/07/28 03:36:25;;;;;;;20.90;2.90;;;;;;;35.65;30.59;100768.25;5061356;28;20115;-60
2022/07/28 03:38:59;;;;;;;14.38;2.85;;;;;;;35.59;30.73;100765.16;5059067;28;20029;-63
2022/07/28 03:41:28;;;;;;;16.33;6.70;;;;;;;35.62;30.49;100764.28;5056069;28;20063;-62
2022/07/28 03:43:56;;;;;;;17.25;2.70;;;;;;;35.61;30.31;100768.34;5058709;28;20025;-61
2022/07/28 03:46:25;;;;;;;11.10;2.30;;;;;;;35.63;30.62;100776.38;5062782;28;20068;-63
2022/07/28 03:48:52;;;;;;;13.55;2.30;;;;;;;35.58;30.49;100774.88;5063959;28;20104;-63
2022/07/28 03:51:19;;;;;;;13.60;2.42;;;;;;;35.53;30.97;100769.69;5079264;28;20110;-62
2022/07/28 03:53:46;;;;;;;13.30;2.50;;;;;;;35.49;30.62;100768.19;5062965;28;20041;-63
2022/07/28 03:56:13;;;;;;;8.75;2.22;;;;;;;35.43;31.03;100770.72;5061703;28;20029;-62
2022/07/28 03:58:39;;;;;;;9.10;2.45;;;;;;;35.52;31.25;100781.44;5066951;28;20071;-62
2022/07/28 04:01:06;;;;;;;19.17;2.88;;;;;;;35.45;31.00;100770.28;5078469;28;20714;-62
2022/07/28 04:03:33;;;;;;;15.68;2.30;;;;;;;35.44;31.13;100766.66;5078496;28;20016;-62
2022/07/28 04:06:00;;;;;;;12.63;2.58;;;;;;;35.41;31.04;100770.38;5083781;28;20036;-63
2022/07/28 04:08:27;;;;;;;8.15;2.00;;;;;;;35.38;30.95;100759.94;5080877;28;20047;-64
2022/07/28 04:10:53;;;;;;;10.32;2.30;;;;;;;35.32;31.35;100767.28;5079350;28;20039;-62
2022/07/28 04:13:20;;;;;;;15.35;2.30;;;;;;;35.35;31.36;100763.59;5083971;28;20024;-63
2022/07/28 04:15:47;;;;;;;12.93;2.80;;;;;;;35.37;31.45;100769.63;5077742;28;20071;-60
2022/07/28 04:18:14;;;;;;;14.50;3.00;;;;;;;35.37;31.31;100775.28;5078148;28;20024;-62
2022/07/28 04:20:40;;;;;;;13.30;3.17;;;;;;;35.42;30.77;100771.97;5084957;28;20032;-62
2022/07/28 04:23:07;;;;;;;10.93;2.25;;;;;;;35.32;31.21;100785.03;5085184;28;20487;-62
2022/07/28 04:25:34;;;;;;;9.32;2.13;;;;;;;35.24;31.58;100777.13;5084097;28;20102;-61
2022/07/28 04:28:01;;;;;;;10.40;2.38;;;;;;;35.18;31.80;100784.50;5073308;28;20040;-63
2022/07/28 04:30:28;;;;;;;7.85;2.42;;;;;;;35.21;31.51;100780.84;5074555;28;20386;-61
2022/07/28 04:32:55;;;;;;;6.65;2.38;;;;;;;35.17;31.15;100782.91;5063016;28;20020;-63
2022/07/28 04:35:26;;;;;;;10.60;2.13;;;;;;;35.16;31.35;100795.44;5082747;28;20051;-62
2022/07/28 04:37:59;;;;;;;10.23;2.38;;;;;;;35.12;31.85;100782.19;5090688;28;20036;-62
2022/07/28 04:40:26;;;;;;;11.63;2.20;;;;;;;35.10;31.83;100790.28;5075075;28;20041;-62
2022/07/28 04:42:54;;;;;;;16.90;2.45;;;;;;;34.99;31.55;100795.31;5085750;28;20028;-62
2022/07/28 04:45:21;;;;;;;28.48;3.40;;;;;;;34.96;32.07;100796.19;5081725;28;20154;-61
2022/07/28 04:47:48;;;;;;;23.50;3.13;;;;;;;34.87;32.41;100790.31;5080771;28;20027;-60
2022/07/28 04:50:17;;;;;;;18.40;3.15;;;;;;;34.79;32.80;100803.72;5060661;28;20033;-62
2022/07/28 04:52:48;;;;;;;10.00;2.83;;;;;;;34.68;33.54;100803.13;5060694;28;20028;-62
2022/07/28 04:55:17;;;;;;;10.02;2.15;;;;;;;34.75;33.19;100790.88;5060385;28;20107;-61
2022/07/28 04:57:44;;;;;;;16.00;2.88;;;;;;;34.72;33.15;100798.19;5065523;28;20074;-62
2022/07/28 05:00:12;;;;;;;26.90;3.17;;;;;;;34.58;33.20;100791.97;5064318;28;20066;-63
2022/07/28 05:02:40;;;;;;;10.10;2.83;;;;;;;34.60;33.07;100792.34;5077939;28;20071;-62
2022/07/28 05:05:07;;;;;;;16.98;2.65;;;;;;;34.49;32.97;100796.16;5059339;28;20029;-62
2022/07/28 05:07:34;;;;;;;18.58;2.72;;;;;;;34.48;33.04;100805.84;5067467;28;20048;-62
2022/07/28 05:10:02;;;;;;;20.67;3.20;;;;;;;34.47;33.15;100801.44;5063542;28;20028;-61
2022/07/28 05:12:29;;;;;;;11.48;2.88;;;;;;;34.46;32.91;100802.63;5064504;28;20059;-62
2022/07/28 05:14:55;;;;;;;18.92;3.20;;;;;;;34.42;33.93;100801.09;5065576;28;20028;-62
2022/07/28 05:17:22;;;;;;;16.75;3.50;;;;;;;34.37;34.13;100793.91;5068523;28;20044;-60
2022/07/28 05:19:49;;;;;;;14.00;3.20;;;;;;;34.33;33.73;100798.78;5065407;28;20032;-62
2022/07/28 05:22:16;;;;;;;14.68;3.80;;;;;;;34.23;34.00;100800.53;5068116;28;20032;-61
2022/07/28 05:24:43;;;;;;;31.42;4.50;;;;;;;34.20;33.89;100803.41;5064571;28;20036;-61
2022/07/28 05:27:12;;;;;;;15.30;4.43;;;;;;;34.16;34.15;100805.50;5065515;28;20029;-61
2022/07/28 05:29:40;;;;;;;12.60;5.32;;;;;;;34.18;34.12;100809.47;5066046;28;20120;-61
2022/07/28 05:32:07;;;;;;;16.63;5.00;;;;;;;34.22;34.70;100813.03;5065228;28;20023;-61
2022/07/28 05:34:35;;;;;;;14.82;4.50;;;;;;;34.19;34.55;100816.72;5066806;28;20035;-61
2022/07/28 05:37:02;;;;;;;20.63;4.80;;;;;;;34.17;34.76;100812.72;5064391;28;20012;-61
2022/07/28 05:39:31;;;;;;;21.75;4.22;;;;;;;33.98;34.97;100822.66;5066567;28;20032;-60
2022/07/28 05:41:59;;;;;;;15.23;4.22;;;;;;;33.97;34.68;100823.09;5066297;28;20490;-62
2022/07/28 05:44:26;;;;;;;11.82;3.83;;;;;;;33.92;34.05;100825.13;5068390;28;20033;-61
2022/07/28 05:46:52;;;;;;;14.90;4.10;;;;;;;33.89;34.96;100817.53;5084219;28;20061;-61
2022/07/28 05:49:20;;;;;;;15.65;4.32;;;;;;;33.84;35.34;100834.09;5081328;28;20033;-63
2022/07/28 05:51:47;;;;;;;17.52;4.55;;;;;;;33.82;35.74;100831.69;5071142;28;20063;-61
2022/07/28 05:54:14;;;;;;;12.27;3.78;;;;;;;33.72;35.75;100826.97;5072640;28;20036;-62
2022/07/28 05:56:41;;;;;;;13.15;4.78;;;;;;;33.70;36.16;100829.41;5074017;28;20020;-62
2022/07/28 05:59:09;;;;;;;13.18;4.38;;;;;;;33.69;36.20;100812.91;5073290;28;20029;-62
2022/07/28 06:01:36;;;;;;;15.77;5.68;;;;;;;33.58;36.31;100818.69;5071196;28;20021;-62
2022/07/28 06:04:03;;;;;;;17.95;4.82;;;;;;;33.54;36.41;100832.00;5070756;28;20037;-62
2022/07/28 06:06:30;;;;;;;16.88;5.63;;;;;;;33.49;37.00;100824.03;5073683;28;20045;-62
2022/07/28 06:08:57;;;;;;;14.50;5.43;;;;;;;33.53;37.07;100821.94;5072111;28;20055;-62
2022/07/28 06:11:24;;;;;;;12.30;5.07;;;;;;;33.43;37.31;100811.63;5080469;28;20095;-61
2022/07/28 06:13:51;;;;;;;15.45;5.53;;;;;;;33.47;37.24;100820.81;5076867;28;20036;-61
2022/07/28 06:16:19;;;;;;;14.55;4.50;;;;;;;33.52;37.14;100828.81;5088082;28;20140;-62
2022/07/28 06:18:46;;;;;;;16.15;5.45;;;;;;;33.49;36.74;100815.56;5073209;28;20028;-62
2022/07/28 06:21:13;;;;;;;18.10;5.55;;;;;;;33.40;36.76;100813.25;5085901;28;20028;-62
2022/07/28 06:23:40;;;;;;;16.08;6.05;;;;;;;33.28;37.53;100808.91;5080674;28;20426;-62
2022/07/28 06:26:06;;;;;;;22.33;6.65;;;;;;;33.22;37.41;100810.59;5082912;28;20052;-62
2022/07/28 06:28:33;;;;;;;16.42;6.05;;;;;;;33.31;37.07;100813.72;5088986;28;20040;-61
2022/07/28 06:31:00;;;;;;;12.52;4.60;;;;;;;33.20;37.66;100813.00;5078174;28;20024;-62
2022/07/28 06:33:27;;;;;;;14.10;4.45;;;;;;;33.19;37.53;100811.41;5080934;28;20497;-62
2022/07/28 06:35:53;;;;;;;14.40;3.30;;;;;;;33.17;36.49;100811.03;5078974;28;20024;-62
2022/07/28 06:38:21;;;;;;;12.10;3.47;;;;;;;33.06;35.79;100813.16;5084428;28;20474;-62
2022/07/28 06:40:49;;;;;;;10.52;3.25;;;;;;;33.00;35.79;100812.00;5083760;28;20032;-61
2022/07/28 06:43:17;;;;;;;14.82;2.80;;;;;;;33.09;35.62;100812.34;5062994;28;20025;-61
2022/07/28 06:45:47;;;;;;;11.27;2.92;;;;;;;32.97;35.61;100816.44;5083967;28;20107;-61
2022/07/28 06:48:14;;;;;;;10.52;2.50;;;;;;;32.97;35.27;100826.91;5083379;28;20109;-61
2022/07/28 06:50:44;;;;;;;17.88;2.80;;;;;;;32.88;35.21;100829.41;5088668;28;20024;-62
2022/07/28 06:53:11;;;;;;;9.30;2.72;;;;;;;32.80;35.57;100825.84;5085686;28;20040;-61
2022/07/28 06:55:39;;;;;;;12.70;2.83;;;;;;;32.78;36.04;100824.63;5086134;28;20019;-61
2022/07/28 06:58:08;;;;;;;7.03;2.72;;;;;;;32.74;35.90;100825.47;5086256;28;20064;-61
2022/07/28 07:00:35;;;;;;;6.63;2.75;;;;;;;32.74;35.78;100825.47;5086180;28;20390;-61
2022/07/28 07:03:04;;;;;;;21.50;3.13;;;;;;;32.63;36.30;100821.91;5068387;28;20040;-61
2022/07/28 07:05:32;;;;;;;11.02;2.55;;;;;;;32.55;35.70;100828.81;5083347;28;20020;-62
2022/07/28 07:07:59;;;;;;;13.75;2.58;;;;;;;32.45;36.69;100826.88;5084732;28;20056;-62
2022/07/28 07:10:26;;;;;;;9.63;2.75;;;;;;;32.45;37.05;100824.06;5087630;28;20044;-61
2022/07/28 07:12:56;;;;;;;11.82;3.05;;;;;;;32.53;36.11;100828.44;5080962;28;20123;-62
2022/07/28 07:15:25;;;;;;;11.18;3.70;;;;;;;32.45;37.07;100818.44;5087143;28;20041;-61
2022/07/28 07:17:55;;;;;;;12.63;3.83;;;;;;;32.40;36.87;100816.88;5082583;28;20035;-61
2022/07/28 07:20:24;;;;;;;11.95;3.63;;;;;;;32.34;37.27;100821.34;5085533;28;20032;-61
2022/07/28 07:22:54;;;;;;;11.90;3.85;;;;;;;32.40;36.89;100816.06;5097715;28;20508;-61
2022/07/28 07:25:22;;;;;;;12.63;3.97;;;;;;;32.35;37.47;100813.69;5093236;28;20393;-61
2022/07/28 07:27:49;;;;;;;12.23;4.18;;;;;;;32.32;37.44;100806.09;5080988;28;20091;-61
2022/07/28 07:30:16;;;;;;;10.75;3.33;;;;;;;32.36;37.45;100809.66;5077723;28;20127;-61
2022/07/28 07:32:49;;;;;;;12.68;3.65;;;;;;;32.32;37.61;100812.50;5089969;28;20390;-61
2022/07/28 07:35:17;;;;;;;14.10;3.90;;;;;;;32.34;37.94;100806.47;5081504;28;20402;-60
2022/07/28 07:37:44;;;;;;;10.20;3.45;;;;;;;32.36;37.55;100809.66;5081506;28;20029;-61
2022/07/28 07:40:11;;;;;;;12.32;3.28;;;;;;;32.37;37.61;100794.38;5090598;28;20043;-61
2022/07/28 07:42:38;;;;;;;11.02;3.20;;;;;;;32.35;38.09;100794.81;5077499;28;20016;-61
2022/07/28 07:45:08;;;;;;;13.10;3.20;;;;;;;32.36;37.79;100795.59;5086158;28;20033;-61
2022/07/28 07:47:35;;;;;;;13.43;2.95;;;;;;;32.34;37.84;100800.84;5067708;28;20097;-60
2022/07/28 07:50:02;;;;;;;11.95;3.28;;;;;;;32.40;38.13;100804.81;5078646;28;20671;-61
2022/07/28 07:52:29;;;;;;;14.57;2.97;;;;;;;32.38;38.35;100802.41;5090543;28;20024;-61
2022/07/28 07:54:59;;;;;;;15.02;2.88;;;;;;;32.26;39.05;100799.25;5079839;28;20043;-61
2022/07/28 07:57:28;;;;;;;12.90;3.05;;;;;;;32.25;38.36;100797.63;5086837;28;20052;-61
2022/07/28 07:59:59;;;;;;;19.60;3.78;;;;;;;32.19;39.12;100796.47;5079258;28;20041;-60
2022/07/28 08:02:26;;;;;;;14.63;2.75;;;;;;;32.16;38.46;100796.09;5105848;28;20031;-61
2022/07/28 08:04:56;;;;;;;13.68;3.05;;;;;;;32.12;38.42;100795.28;5079570;28;20035;-61
2022/07/28 08:07:25;;;;;;;9.90;3.15;;;;;;;32.07;38.83;100792.91;5098865;28;20052;-60
2022/07/28 08:09:52;;;;;;;7.75;2.50;;;;;;;32.06;39.35;100790.53;5085971;28;20497;-61
2022/07/28 08:12:18;;;;;;;10.80;2.70;;;;;;;32.06;39.38;100779.28;5076848;28;20032;-61
2022/07/28 08:14:45;;;;;;;12.10;2.75;;;;;;;32.08;39.63;100786.09;5089265;28;20041;-61
2022/07/28 08:17:11;;;;;;;9.27;2.53;;;;;;;32.02;39.66;100784.91;5081672;28;20067;-61
2022/07/28 08:19:38;;;;;;;14.77;2.53;;;;;;;31.96;39.37;100766.88;5081503;28;20033;-61
2022/07/28 08:22:05;;;;;;;9.85;2.20;;;;;;;31.91;39.36;100770.09;5087797;28;20028;-61
2022/07/28 08:24:32;;;;;;;13.93;2.85;;;;;;;31.94;39.64;100762.88;5076869;28;20081;-61
2022/07/28 08:26:58;;;;;;;9.18;2.40;;;;;;;31.82;40.02;100764.94;5101659;28;20123;-61
2022/07/28 08:29:25;;;;;;;7.72;2.45;;;;;;;31.76;40.13;100755.31;5083325;28;20032;-61
2022/07/28 08:31:51;;;;;;;9.45;2.70;;;;;;;31.70;40.45;100747.72;5086821;28;20020;-61
2022/07/28 08:34:18;;;;;;;14.50;3.10;;;;;;;31.72;41.17;100748.09;5076698;28;20041;-61
2022/07/28 08:36:45;;;;;;;24.48;3.20;;;;;;;31.60;41.11;100740.09;5088819;28;20024;-61
2022/07/28 08:39:11;;;;;;;12.18;2.70;;;;;;;31.51;41.38;100743.38;5081345;28;20059;-61
2022/07/28 08:41:52;;;;;;;13.63;2.97;;;;;;;31.47;41.70;100734.97;5081240;28;20028;-61
2022/07/28 08:44:26;;;;;;;11.27;2.90;;;;;;;31.54;40.37;100737.72;5089782;28;20028;-61
2022/07/28 08:46:53;;;;;;;;;;;;;;;31.54;41.16;100743.34;5079096;28;20074;-61
2022/07/28 08:49:20;;;;;;;11.30;2.90;;;;;;;31.34;41.75;100728.19;5083861;28;19912;-61
2022/07/28 08:51:48;;;;;;;10.65;3.63;;;;;;;31.22;42.44;100731.41;5085669;28;20032;-61
2022/07/28 08:54:22;;;;;;;21.80;4.45;;;;;;;31.22;42.30;100751.06;5076156;28;20116;-61
2022/07/28 08:56:49;;;;;;;14.27;3.97;;;;;;;31.14;42.71;100746.66;5085741;28;20051;-61
2022/07/28 08:59:16;;;;;;;20.20;4.47;;;;;;;31.13;42.87;100739.44;5084170;28;20532;-60
2022/07/28 09:01:42;;;;;;;20.70;3.70;;;;;;;31.08;42.14;100737.88;5083745;28;20036;-60
2022/07/28 09:04:09;;;;;;;245.93;11.35;;;;;;;31.12;42.83;100737.84;5076618;28;20021;-60
2022/07/28 09:06:40;;;;;;;21.08;3.20;;;;;;;31.11;42.89;100739.06;5088317;28;20045;-61
2022/07/28 09:09:08;;;;;;;9.93;3.15;;;;;;;31.12;42.90;100735.03;5080318;28;20035;-60
2022/07/28 09:11:37;;;;;;;9.75;2.85;;;;;;;31.08;43.25;100737.88;5081161;28;20017;-60
2022/07/28 09:14:05;;;;;;;11.65;2.90;;;;;;;31.07;43.49;100744.69;5088089;28;20107;-60
2022/07/28 09:16:32;;;;;;;10.00;3.13;;;;;;;31.05;43.92;100740.66;5075912;28;20107;-60
2022/07/28 09:18:58;;;;;;;12.23;3.22;;;;;;;31.01;43.97;100737.84;5086306;28;20043;-60
2022/07/28 09:21:25;;;;;;;25.02;4.20;;;;;;;31.07;44.43;100741.09;5082385;28;20020;-60
2022/07/28 09:23:53;;;;;;;18.35;3.75;;;;;;;31.16;43.37;100738.63;5078398;28;20025;-60
2022/07/28 09:26:19;;;;;;;22.75;3.83;;;;;;;31.11;44.08;100730.63;5082819;28;20028;-60
2022/07/28 09:28:57;;;;;;;14.50;3.78;;;;;;;31.03;44.29;100737.44;5087903;28;20090;-60
2022/07/28 09:31:27;;;;;;;14.57;4.00;;;;;;;31.04;44.54;100734.25;5082448;28;20036;-60
2022/07/28 09:33:55;;;;;;;10.02;3.40;;;;;;;31.11;44.88;100736.25;5078138;28;20036;-61
2022/07/28 09:36:22;;;;;;;16.38;3.83;;;;;;;31.18;44.92;100734.25;5088980;28;20616;-61
2022/07/28 09:38:49;;;;;;;18.80;3.72;;;;;;;31.06;45.35;100729.06;5077378;28;20036;-60
2022/07/28 09:41:20;;;;;;;9.98;3.95;;;;;;;30.97;44.95;100725.84;5083678;28;20032;-61
2022/07/28 09:43:48;;;;;;;15.05;4.45;;;;;;;31.00;45.66;100727.03;5085349;28;20071;-61
2022/07/28 09:46:25;;;;;;;15.30;4.25;;;;;;;30.96;44.44;100718.63;5075678;28;20108;-61
2022/07/28 09:49:00;;;;;;;35.45;5.28;;;;;;;31.00;44.52;100732.66;5087034;28;20033;-61
2022/07/28 09:51:30;;;;;;;13.45;4.00;;;;;;;30.97;45.22;100737.06;5082710;28;20101;-61
2022/07/28 09:54:25;;;;;;;12.70;4.13;;;;;;;30.97;45.93;100737.88;5077880;28;20102;-61
2022/07/28 09:56:52;;;;;;;15.52;4.30;;;;;;;30.89;46.61;100729.88;5065054;28;20047;-62
2022/07/28 09:59:20;;;;;;;12.68;4.60;;;;;;;30.84;46.32;100733.88;5083129;28;20470;-61
2022/07/28 10:01:57;;;;;;;12.13;4.72;;;;;;;30.81;46.89;100734.69;5085035;28;20136;-61
2022/07/28 10:04:37;;;;;;;17.10;4.78;;;;;;;30.83;46.78;100739.91;5075621;28;20033;-61
2022/07/28 10:07:08;;;;;;;11.52;4.40;;;;;;;30.86;46.22;100725.84;5084721;28;20056;-61
2022/07/28 10:09:37;;;;;;;11.10;4.00;;;;;;;30.88;46.11;100739.47;5083486;28;20040;-62
2022/07/28 10:12:22;;;;;;;15.25;4.85;;;;;;;30.85;46.51;100741.09;5076671;28;20032;-62
2022/07/28 10:14:51;;;;;;;15.07;5.40;;;;;;;30.90;47.62;100737.91;5061929;28;20028;-61
2022/07/28 10:17:35;;;;;;;14.05;6.63;;;;;;;30.98;48.23;100739.47;5083227;28;20432;-61
2022/07/28 10:20:05;;;;;;;15.57;6.93;;;;;;;30.96;48.17;100729.84;5090011;28;20036;-62
2022/07/28 10:22:36;;;;;;;15.13;6.47;;;;;;;30.97;48.27;100737.06;5079290;28;20024;-61
2022/07/28 10:25:14;;;;;;;16.30;7.53;;;;;;;30.89;48.63;100733.50;5089145;28;20126;-61
2022/07/28 10:27:42;;;;;;;16.35;7.10;;;;;;;30.89;49.00;100732.69;5087527;28;20482;-61
2022/07/28 10:30:09;;;;;;;20.42;8.60;;;;;;;30.84;48.53;100722.66;5079728;28;20467;-61
2022/07/28 10:32:45;;;;;;;15.60;8.40;;;;;;;30.87;49.24;100721.84;5092226;28;20509;-61
2022/07/28 10:35:16;;;;;;;22.05;8.68;;;;;;;30.88;48.53;100728.25;5084150;28;20036;-61
2022/07/28 10:37:57;;;;;;;17.83;8.93;;;;;;;30.85;49.78;100729.88;5082818;28;20071;-61
2022/07/28 10:40:45;;;;;;;20.02;8.07;;;;;;;30.86;50.70;100725.84;5092227;28;20047;-61
2022/07/28 10:43:13;;;;;;;23.73;8.13;;;;;;;30.84;50.90;100727.47;5076153;28;20081;-60
2022/07/28 10:45:40;;;;;;;16.63;8.02;;;;;;;30.85;51.72;100727.06;5075119;28;20157;-61
2022/07/28 10:48:07;;;;;;;19.05;8.60;;;;;;;30.84;51.60;100717.03;5077584;28;20499;-60
2022/07/28 10:50:35;;;;;;;15.52;7.07;;;;;;;30.80;52.00;100721.06;5078199;28;20066;-61
2022/07/28 10:53:03;;;;;;;18.95;7.75;;;;;;;30.68;52.06;100719.47;5088712;28;20116;-61
2022/07/28 10:55:32;;;;;;;15.05;6.57;;;;;;;30.63;50.96;100723.47;5083198;28;20024;-60
2022/07/28 10:58:25;;;;;;;14.98;7.05;;;;;;;30.59;53.17;100721.84;5089766;28;20774;-61
2022/07/28 11:00:53;;;;;;;15.23;6.78;;;;;;;30.51;53.55;100721.03;5065992;28;20101;-60
2022/07/28 11:03:43;;;;;;;13.75;6.78;;;;;;;30.45;53.65;100716.25;5085832;28;20109;-61
2022/07/28 11:06:35;;;;;;;13.77;6.60;;;;;;;30.39;54.24;100715.84;5091197;28;20028;-61
2022/07/28 11:09:17;;;;;;;15.13;6.68;;;;;;;30.31;54.38;100715.03;5068681;28;20500;-60
2022/07/28 11:11:56;;;;;;;14.02;6.32;;;;;;;30.33;55.21;100712.63;5081853;28;20047;-60
2022/07/28 11:14:32;;;;;;;13.27;5.80;;;;;;;30.32;54.75;100711.03;5076424;28;20068;-61
2022/07/28 11:17:04;;;;;;;12.20;5.63;;;;;;;30.32;54.64;100713.03;5088647;28;20035;-61
2022/07/28 11:19:51;;;;;;;12.85;5.28;;;;;;;30.29;54.80;100711.81;5085223;28;20482;-61
2022/07/28 11:22:29;;;;;;;15.10;5.50;;;;;;;30.30;56.23;100716.22;5077940;28;20037;-61
2022/07/28 11:24:56;;;;;;;12.90;5.22;;;;;;;30.26;56.72;100729.44;5088749;28;20064;-61
2022/07/28 11:27:41;;;;;;;13.75;4.70;;;;;;;30.17;57.04;100734.66;5083882;28;20032;-61
2022/07/28 11:30:35;;;;;;;12.18;4.57;;;;;;;30.17;57.34;100737.47;5077794;28;20033;-61
2022/07/28 11:33:08;;;;;;;8.50;4.13;;;;;;;30.09;57.24;100749.84;5068041;28;20557;-61
2022/07/28 11:35:41;;;;;;;13.82;4.55;;;;;;;30.06;58.30;100742.22;5083302;28;20421;-61